Time;durP1;ratioP1;P1;durP2;ratioP2;P2;SDS_P1;SDS_P2;PMS_P1;PMS_P2;Temp;Humidity;BMP_temperature;BMP_pressure;BME280_temperature;BME280_humidity;BME280_pressure;Samples;Min_cycle;Max_cycle;Signal;HPM_P1;HPM_P2
2021/12/26 00:01:20;;;;;;;1.58;1.45;;;;;;;;;;7390042;19;20474;-53
2021/12/26 00:04:13;;;;;;;1.90;1.40;;;;;;;;;;7391693;19;20022;-56
2021/12/26 00:06:58;;;;;;;1.70;1.58;;;;;;;;;;7390387;19;20006;-55
2021/12/26 00:09:42;;;;;;;2.25;2.03;;;;;;;;;;7391764;19;20019;-52
2021/12/26 00:12:22;;;;;;;1.10;1.10;;;;;;;;;;7390938;19;20018;-60
2021/12/26 00:15:05;;;;;;;1.88;1.73;;;;;;;;;;7390273;19;20020;-59
2021/12/26 00:17:51;;;;;;;4.25;1.88;;;;;;;;;;7390592;19;20044;-59
2021/12/26 00:20:28;;;;;;;2.13;1.80;;;;;;;;;;7391025;19;20007;-54
2021/12/26 00:23:16;;;;;;;2.72;1.65;;;;;;;;;;7390778;19;20010;-55
2021/12/26 00:26:02;;;;;;;1.50;1.40;;;;;;;;;;7390444;19;20495;-53
2021/12/26 00:29:07;;;;;;;2.03;1.52;;;;;;;;;;7390051;19;20039;-57
2021/12/26 00:31:47;;;;;;;1.60;1.50;;;;;;;;;;7388704;19;20019;-53
2021/12/26 00:34:33;;;;;;;1.95;1.38;;;;;;;;;;7389119;19;20024;-51
2021/12/26 00:37:20;;;;;;;6.03;1.98;;;;;;;;;;7390669;19;20082;-50
2021/12/26 00:40:05;;;;;;;4.03;1.58;;;;;;;;;;7390400;19;20007;-60
2021/12/26 00:42:50;;;;;;;2.22;1.80;;;;;;;;;;7389926;19;20486;-60
2021/12/26 00:45:45;;;;;;;4.22;2.40;;;;;;;;;;7390076;19;20044;-52
2021/12/26 00:48:37;;;;;;;3.88;1.75;;;;;;;;;;7390064;19;20467;-61
2021/12/26 00:51:26;;;;;;;2.33;1.77;;;;;;;;;;7390189;19;20007;-53
2021/12/26 00:54:11;;;;;;;3.35;1.73;;;;;;;;;;7391787;19;20031;-61
2021/12/26 00:56:43;;;;;;;4.10;2.22;;;;;;;;;;7388908;19;20010;-56
2021/12/26 00:59:11;;;;;;;1.83;1.30;;;;;;;;;;7389989;19;20006;-58
2021/12/26 01:01:38;;;;;;;3.55;1.38;;;;;;;;;;7389285;19;20082;-55
2021/12/26 01:04:06;;;;;;;3.83;2.17;;;;;;;;;;7389788;19;20356;-56
2021/12/26 01:06:34;;;;;;;2.30;1.92;;;;;;;;;;7388525;19;20052;-56
2021/12/26 01:09:07;;;;;;;2.35;1.70;;;;;;;;;;7390677;19;20013;-58
2021/12/26 01:11:41;;;;;;;2.30;1.60;;;;;;;;;;7388822;19;20027;-53
2021/12/26 01:14:14;;;;;;;4.32;2.15;;;;;;;;;;7387565;19;20475;-55
2021/12/26 01:16:44;;;;;;;2.13;1.63;;;;;;;;;;7389993;19;20018;-57
2021/12/26 01:19:15;;;;;;;3.83;2.40;;;;;;;;;;7394872;19;20006;-59
2021/12/26 01:21:44;;;;;;;2.78;1.88;;;;;;;;;;7395243;19;20479;-58
2021/12/26 01:24:17;;;;;;;3.33;1.70;;;;;;;;;;7395061;19;20010;-54
2021/12/26 01:26:44;;;;;;;1.80;1.70;;;;;;;;;;7395517;19;20007;-59
2021/12/26 01:29:34;;;;;;;5.45;1.90;;;;;;;;;;7394917;19;20011;-57
2021/12/26 01:32:03;;;;;;;2.50;1.80;;;;;;;;;;7395686;19;20010;-59
2021/12/26 01:35:06;;;;;;;;;;;;;;;;;;7392673;19;20011;-60
2021/12/26 01:37:54;;;;;;;4.55;1.75;;;;;;;;;;7394520;19;19960;-61
2021/12/26 01:40:49;;;;;;;3.85;2.28;;;;;;;;;;7395212;19;20032;-56
2021/12/26 01:43:36;;;;;;;3.80;1.98;;;;;;;;;;7396714;19;20017;-54
2021/12/26 01:46:16;;;;;;;2.75;1.77;;;;;;;;;;7394444;19;20014;-59
2021/12/26 01:48:43;;;;;;;5.55;2.28;;;;;;;;;;7394406;19;20021;-60
2021/12/26 01:51:12;;;;;;;1.85;1.40;;;;;;;;;;7395409;19;20530;-54
2021/12/26 01:53:42;;;;;;;2.38;1.92;;;;;;;;;;7395319;19;20336;-56
2021/12/26 01:56:12;;;;;;;5.50;1.70;;;;;;;;;;7392775;19;20007;-60
2021/12/26 01:58:40;;;;;;;3.78;1.98;;;;;;;;;;7393882;19;20015;-53
2021/12/26 02:01:36;;;;;;;3.95;2.10;;;;;;;;;;7394762;19;20015;-56
2021/12/26 02:04:04;;;;;;;7.22;1.77;;;;;;;;;;7394201;19;20022;-54
2021/12/26 02:06:32;;;;;;;5.30;1.85;;;;;;;;;;7394294;19;20006;-51
2021/12/26 02:09:00;;;;;;;3.45;1.73;;;;;;;;;;7393709;19;20467;-61
2021/12/26 02:11:28;;;;;;;2.35;1.85;;;;;;;;;;7396854;19;20010;-59
2021/12/26 02:13:58;;;;;;;4.65;2.28;;;;;;;;;;7392925;19;20347;-57
2021/12/26 02:16:34;;;;;;;4.45;2.20;;;;;;;;;;7393431;19;20015;-59
2021/12/26 02:19:02;;;;;;;3.72;1.95;;;;;;;;;;7398591;19;20017;-59
2021/12/26 02:21:54;;;;;;;2.05;1.40;;;;;;;;;;7393051;19;20014;-60
2021/12/26 02:24:25;;;;;;;2.97;1.80;;;;;;;;;;7393082;19;20475;-59
2021/12/26 02:29:43;;;;;;;6.93;2.72;;;;;;;;;;7392435;19;20015;-55
2021/12/26 02:32:11;;;;;;;4.40;2.10;;;;;;;;;;7394416;19;20037;-51
2021/12/26 02:34:38;;;;;;;4.95;2.40;;;;;;;;;;7391788;19;20467;-50
2021/12/26 02:37:06;;;;;;;3.85;1.75;;;;;;;;;;7393258;19;20387;-61
2021/12/26 02:39:35;;;;;;;4.03;1.90;;;;;;;;;;7393085;19;20014;-57
2021/12/26 02:42:03;;;;;;;4.28;2.00;;;;;;;;;;7392738;19;20035;-60
2021/12/26 02:44:30;;;;;;;3.58;2.08;;;;;;;;;;7394231;19;20014;-56
2021/12/26 02:46:57;;;;;;;3.22;1.90;;;;;;;;;;7392047;19;20015;-59
2021/12/26 02:49:26;;;;;;;5.63;2.33;;;;;;;;;;7394069;19;20333;-50
2021/12/26 02:51:54;;;;;;;2.85;1.90;;;;;;;;;;7393080;19;20011;-53
2021/12/26 02:54:24;;;;;;;4.40;1.60;;;;;;;;;;7396593;19;20014;-55
2021/12/26 02:56:54;;;;;;;7.30;2.35;;;;;;;;;;7391720;19;20090;-56
2021/12/26 02:59:22;;;;;;;5.03;2.28;;;;;;;;;;7392296;19;20079;-56
2021/12/26 03:01:52;;;;;;;4.72;2.28;;;;;;;;;;7391517;19;20017;-54
2021/12/26 03:04:19;;;;;;;7.07;2.55;;;;;;;;;;7391732;19;20482;-52
2021/12/26 03:07:02;;;;;;;3.08;1.95;;;;;;;;;;7393684;19;20082;-53
2021/12/26 03:09:42;;;;;;;3.33;2.10;;;;;;;;;;7391666;19;20532;-52
2021/12/26 03:12:11;;;;;;;4.80;2.97;;;;;;;;;;7391539;19;20015;-53
2021/12/26 03:14:39;;;;;;;4.47;2.45;;;;;;;;;;7392858;19;20017;-56
2021/12/26 03:17:08;;;;;;;4.30;2.25;;;;;;;;;;7391266;19;20033;-58
2021/12/26 03:19:36;;;;;;;5.15;2.42;;;;;;;;;;7391623;19;20093;-55
2021/12/26 03:22:04;;;;;;;10.55;3.03;;;;;;;;;;7391681;19;20015;-58
2021/12/26 03:24:34;;;;;;;5.78;2.85;;;;;;;;;;7391430;19;20030;-52
2021/12/26 03:27:04;;;;;;;5.20;1.95;;;;;;;;;;7393136;19;20085;-54
2021/12/26 03:29:33;;;;;;;5.32;2.35;;;;;;;;;;7393470;19;20007;-59
2021/12/26 03:32:05;;;;;;;4.15;2.05;;;;;;;;;;7390085;19;20485;-49
2021/12/26 03:34:35;;;;;;;5.45;3.00;;;;;;;;;;7390922;19;20026;-63
2021/12/26 03:37:02;;;;;;;5.50;2.63;;;;;;;;;;7391960;19;20033;-50
2021/12/26 03:39:30;;;;;;;3.17;2.13;;;;;;;;;;7390355;19;20011;-59
2021/12/26 03:41:57;;;;;;;3.17;2.15;;;;;;;;;;7388919;19;20035;-51
2021/12/26 03:44:25;;;;;;;4.15;2.25;;;;;;;;;;7390728;19;20010;-47
2021/12/26 03:46:52;;;;;;;8.13;2.92;;;;;;;;;;7392049;19;20033;-61
2021/12/26 03:49:20;;;;;;;3.67;2.35;;;;;;;;;;7390465;19;20363;-54
2021/12/26 03:51:47;;;;;;;5.68;3.45;;;;;;;;;;7389899;19;20011;-47
2021/12/26 03:54:15;;;;;;;4.68;2.42;;;;;;;;;;7393172;19;20035;-51
2021/12/26 03:56:43;;;;;;;4.93;2.35;;;;;;;;;;7388235;19;20020;-46
2021/12/26 03:59:15;;;;;;;7.22;2.58;;;;;;;;;;7389961;19;20087;-47
2021/12/26 04:01:43;;;;;;;5.40;2.88;;;;;;;;;;7391506;19;20047;-54
2021/12/26 04:04:10;;;;;;;3.67;1.98;;;;;;;;;;7390979;19;20082;-54
2021/12/26 04:06:38;;;;;;;5.97;2.65;;;;;;;;;;7389972;19;20027;-48
2021/12/26 04:09:08;;;;;;;8.18;3.00;;;;;;;;;;7389675;19;20011;-49
2021/12/26 04:11:38;;;;;;;3.65;2.30;;;;;;;;;;7391923;19;20014;-48
2021/12/26 04:14:06;;;;;;;5.28;2.50;;;;;;;;;;7391997;19;20019;-52
2021/12/26 04:16:33;;;;;;;3.13;1.88;;;;;;;;;;7388101;19;20015;-57
2021/12/26 04:19:01;;;;;;;7.80;2.58;;;;;;;;;;7388300;19;20031;-61
2021/12/26 04:21:28;;;;;;;5.45;2.70;;;;;;;;;;7391024;19;20046;-58
2021/12/26 04:23:59;;;;;;;6.10;2.70;;;;;;;;;;7389724;19;20135;-56
2021/12/26 04:26:27;;;;;;;5.43;2.22;;;;;;;;;;7392532;19;20585;-55
2021/12/26 04:28:55;;;;;;;4.28;2.45;;;;;;;;;;7389148;19;20042;-56
2021/12/26 04:31:23;;;;;;;8.07;2.70;;;;;;;;;;7387223;19;20531;-58
2021/12/26 04:33:51;;;;;;;6.55;3.28;;;;;;;;;;7388297;19;20035;-52
2021/12/26 04:36:20;;;;;;;7.43;2.70;;;;;;;;;;7388332;19;20011;-58
2021/12/26 04:38:47;;;;;;;7.00;3.25;;;;;;;;;;7388928;19;20019;-60
2021/12/26 04:41:15;;;;;;;5.82;2.67;;;;;;;;;;7389536;19;20014;-52
2021/12/26 04:44:17;;;;;;;6.40;2.70;;;;;;;;;;7390058;19;20072;-56
2021/12/26 04:47:06;;;;;;;5.18;2.78;;;;;;;;;;7389116;19;20467;-59
2021/12/26 04:49:33;;;;;;;7.45;2.92;;;;;;;;;;7389275;19;20015;-58
2021/12/26 04:52:05;;;;;;;6.10;3.13;;;;;;;;;;7391915;19;20507;-51
2021/12/26 04:54:35;;;;;;;11.07;4.57;;;;;;;;;;7399815;19;20028;-56
2021/12/26 04:57:03;;;;;;;10.35;4.15;;;;;;;;;;7393433;19;20018;-49
2021/12/26 04:59:30;;;;;;;10.38;3.88;;;;;;;;;;7395791;19;20495;-57
2021/12/26 05:01:59;;;;;;;7.50;3.75;;;;;;;;;;7397609;19;20475;-58
2021/12/26 05:04:27;;;;;;;5.10;3.05;;;;;;;;;;7397359;19;20010;-53
2021/12/26 05:06:54;;;;;;;6.25;3.25;;;;;;;;;;7395944;19;20031;-51
2021/12/26 05:09:21;;;;;;;8.32;2.83;;;;;;;;;;7397859;19;20066;-59
2021/12/26 05:11:49;;;;;;;6.30;3.05;;;;;;;;;;7396914;19;20034;-53
2021/12/26 05:14:17;;;;;;;6.63;3.38;;;;;;;;;;7395595;19;20362;-49
2021/12/26 05:16:44;;;;;;;5.68;2.65;;;;;;;;;;7394823;19;20014;-50
2021/12/26 05:19:14;;;;;;;5.43;2.75;;;;;;;;;;7395150;19;20017;-51
2021/12/26 05:21:41;;;;;;;10.88;5.15;;;;;;;;;;7395379;19;20007;-54
2021/12/26 05:24:09;;;;;;;28.02;10.00;;;;;;;;;;7396822;19;20015;-51
2021/12/26 05:26:37;;;;;;;5.95;3.65;;;;;;;;;;7395330;19;20024;-54
2021/12/26 05:29:05;;;;;;;9.15;3.45;;;;;;;;;;7395644;19;20010;-54
2021/12/26 05:31:33;;;;;;;7.50;3.17;;;;;;;;;;7395446;19;20099;-59
2021/12/26 05:34:00;;;;;;;7.30;2.83;;;;;;;;;;7393654;19;20046;-59
2021/12/26 05:36:28;;;;;;;5.95;3.28;;;;;;;;;;7393955;19;20081;-53
2021/12/26 05:38:56;;;;;;;6.97;2.95;;;;;;;;;;7394245;19;20015;-50
2021/12/26 05:41:24;;;;;;;7.03;3.08;;;;;;;;;;7393804;19;20043;-51
2021/12/26 05:44:14;;;;;;;4.63;2.72;;;;;;;;;;7394144;19;20018;-51
2021/12/26 05:46:42;;;;;;;14.20;4.78;;;;;;;;;;7395845;19;20013;-50
2021/12/26 05:49:11;;;;;;;8.02;3.47;;;;;;;;;;7393772;19;20024;-53
2021/12/26 05:51:49;;;;;;;7.20;3.20;;;;;;;;;;7393543;19;20467;-50
2021/12/26 05:54:47;;;;;;;7.50;3.15;;;;;;;;;;7398882;19;20021;-53
2021/12/26 05:57:15;;;;;;;6.28;2.60;;;;;;;;;;7391638;19;20021;-56
2021/12/26 05:59:43;;;;;;;6.40;3.20;;;;;;;;;;7395712;19;20022;-59
2021/12/26 06:02:11;;;;;;;41.20;13.80;;;;;;;;;;7393492;19;20010;-55
2021/12/26 06:04:41;;;;;;;7.78;3.65;;;;;;;;;;7392376;19;20027;-51
2021/12/26 06:07:12;;;;;;;7.25;3.13;;;;;;;;;;7393375;19;20123;-51
2021/12/26 06:09:41;;;;;;;8.60;3.70;;;;;;;;;;7393252;19;20017;-52
2021/12/26 06:12:09;;;;;;;6.88;2.85;;;;;;;;;;7393463;19;20468;-59
2021/12/26 06:14:38;;;;;;;5.57;2.88;;;;;;;;;;7393680;19;20011;-51
2021/12/26 06:17:06;;;;;;;10.18;4.10;;;;;;;;;;7391261;19;20050;-53
2021/12/26 06:19:53;;;;;;;6.28;2.85;;;;;;;;;;7393293;19;20044;-49
2021/12/26 06:22:26;;;;;;;7.28;3.67;;;;;;;;;;7393164;19;20018;-54
2021/12/26 06:25:11;;;;;;;72.88;21.60;;;;;;;;;;7394465;19;20007;-55
2021/12/26 06:28:07;;;;;;;8.32;3.83;;;;;;;;;;7392855;19;20010;-58
2021/12/26 06:30:55;;;;;;;6.65;3.20;;;;;;;;;;7392572;19;20011;-53
2021/12/26 06:33:42;;;;;;;6.28;2.92;;;;;;;;;;7393653;19;20021;-52
2021/12/26 06:36:32;;;;;;;8.00;3.38;;;;;;;;;;7393010;19;20011;-58
2021/12/26 06:39:18;;;;;;;8.93;2.72;;;;;;;;;;7393668;19;20028;-55
2021/12/26 06:42:04;;;;;;;6.90;3.15;;;;;;;;;;7394268;19;20348;-59
2021/12/26 06:44:50;;;;;;;9.50;3.30;;;;;;;;;;7393912;19;20040;-54
2021/12/26 06:47:50;;;;;;;;;;;;;;;;;;7368030;19;20018;-55
2021/12/26 06:50:19;;;;;;;6.07;2.97;;;;;;;;;;7392148;19;19918;-56
2021/12/26 06:52:49;;;;;;;5.43;2.83;;;;;;;;;;7390462;19;20014;-53
2021/12/26 06:55:16;;;;;;;5.97;3.47;;;;;;;;;;7395825;19;20101;-53
2021/12/26 06:57:44;;;;;;;6.97;3.40;;;;;;;;;;7392030;19;20025;-55
2021/12/26 07:00:15;;;;;;;9.43;3.40;;;;;;;;;;7391715;19;20019;-57
2021/12/26 07:02:43;;;;;;;5.55;3.03;;;;;;;;;;7393731;19;20017;-55
2021/12/26 07:05:12;;;;;;;9.88;3.45;;;;;;;;;;7391560;19;20011;-55
2021/12/26 07:07:57;;;;;;;4.75;2.65;;;;;;;;;;7391410;19;20014;-58
2021/12/26 07:10:25;;;;;;;31.13;10.13;;;;;;;;;;7392794;19;20487;-53
2021/12/26 07:12:52;;;;;;;9.93;3.83;;;;;;;;;;7392107;19;20399;-55
2021/12/26 07:15:41;;;;;;;7.82;3.25;;;;;;;;;;7390240;19;20014;-55
2021/12/26 07:18:09;;;;;;;5.78;2.97;;;;;;;;;;7391190;19;20474;-48
2021/12/26 07:20:39;;;;;;;4.93;3.17;;;;;;;;;;7390912;19;20368;-53
2021/12/26 07:23:12;;;;;;;6.93;3.58;;;;;;;;;;7392857;19;20024;-50
2021/12/26 07:25:43;;;;;;;6.70;2.83;;;;;;;;;;7391085;19;20066;-51
2021/12/26 07:28:13;;;;;;;6.35;3.63;;;;;;;;;;7392293;19;20011;-49
2021/12/26 07:30:59;;;;;;;6.57;3.15;;;;;;;;;;7391176;19;20103;-48
2021/12/26 07:33:26;;;;;;;6.00;3.20;;;;;;;;;;7390725;19;20013;-46
2021/12/26 07:36:00;;;;;;;6.53;3.40;;;;;;;;;;7389922;19;20016;-50
2021/12/26 07:38:56;;;;;;;6.32;2.72;;;;;;;;;;7390323;19;20010;-55
2021/12/26 07:41:27;;;;;;;7.15;3.05;;;;;;;;;;7391704;19;20483;-57
2021/12/26 07:43:55;;;;;;;7.60;3.65;;;;;;;;;;7390141;19;20027;-51
2021/12/26 07:46:41;;;;;;;224.65;72.15;;;;;;;;;;7391556;19;20021;-52
2021/12/26 07:49:18;;;;;;;14.63;7.15;;;;;;;;;;7390733;19;20010;-54
2021/12/26 07:52:17;;;;;;;9.77;4.60;;;;;;;;;;7389138;19;20017;-55
2021/12/26 07:55:05;;;;;;;8.50;3.85;;;;;;;;;;7396306;19;20018;-52
2021/12/26 07:58:05;;;;;;;5.45;3.20;;;;;;;;;;7389773;19;20013;-55
2021/12/26 08:00:52;;;;;;;48.50;18.00;;;;;;;;;;7392253;19;20761;-52
2021/12/26 08:03:40;;;;;;;5.78;3.03;;;;;;;;;;7390801;19;20010;-57
2021/12/26 08:06:31;;;;;;;9.23;3.17;;;;;;;;;;7388266;19;20015;-54
2021/12/26 08:08:59;;;;;;;5.55;3.17;;;;;;;;;;7389545;19;20010;-58
2021/12/26 08:11:28;;;;;;;7.38;3.38;;;;;;;;;;7390923;19;20015;-53
2021/12/26 08:13:56;;;;;;;7.22;3.63;;;;;;;;;;7389943;19;20031;-53
2021/12/26 08:16:23;;;;;;;6.55;3.72;;;;;;;;;;7390463;19;20039;-54
2021/12/26 08:18:51;;;;;;;7.65;3.22;;;;;;;;;;7392798;19;20046;-50
2021/12/26 08:21:18;;;;;;;167.60;63.33;;;;;;;;;;7389793;19;20466;-51
2021/12/26 08:23:46;;;;;;;6.68;3.97;;;;;;;;;;7389761;19;20089;-51
2021/12/26 08:26:13;;;;;;;6.43;3.22;;;;;;;;;;7392234;19;20010;-52
2021/12/26 08:28:40;;;;;;;8.50;3.67;;;;;;;;;;7397422;19;20007;-55
2021/12/26 08:31:10;;;;;;;8.07;3.65;;;;;;;;;;7397029;19;20018;-59
2021/12/26 08:33:38;;;;;;;8.32;4.00;;;;;;;;;;7397555;19;20042;-55
2021/12/26 08:36:05;;;;;;;6.57;3.75;;;;;;;;;;7397804;19;20498;-54
2021/12/26 08:38:33;;;;;;;7.05;3.67;;;;;;;;;;7397981;19;20023;-57
2021/12/26 08:41:01;;;;;;;7.78;3.45;;;;;;;;;;7398427;19;20051;-54
2021/12/26 08:43:28;;;;;;;5.20;3.35;;;;;;;;;;7398512;19;20046;-57
2021/12/26 08:45:56;;;;;;;5.75;3.05;;;;;;;;;;7397766;19;20038;-57
2021/12/26 08:48:24;;;;;;;7.28;3.63;;;;;;;;;;7394241;19;20018;-61
2021/12/26 08:50:55;;;;;;;6.30;3.20;;;;;;;;;;7397457;19;20077;-54
2021/12/26 08:53:27;;;;;;;8.48;4.22;;;;;;;;;;7398691;19;20035;-56
2021/12/26 08:55:57;;;;;;;9.25;4.10;;;;;;;;;;7398312;19;20011;-52
2021/12/26 08:58:26;;;;;;;8.35;4.03;;;;;;;;;;7397790;19;20010;-58
2021/12/26 09:00:57;;;;;;;9.80;4.32;;;;;;;;;;7399516;19;20010;-55
2021/12/26 09:03:24;;;;;;;5.07;2.88;;;;;;;;;;7399345;19;20010;-54
2021/12/26 09:05:52;;;;;;;8.80;3.33;;;;;;;;;;7395587;19;20007;-60
2021/12/26 09:08:21;;;;;;;7.93;4.05;;;;;;;;;;7397435;19;20011;-59
2021/12/26 09:10:49;;;;;;;8.45;3.70;;;;;;;;;;7397140;19;20015;-56
2021/12/26 09:13:16;;;;;;;9.45;4.28;;;;;;;;;;7396446;19;20035;-56
2021/12/26 09:15:44;;;;;;;10.43;2.83;;;;;;;;;;7395295;19;20042;-55
2021/12/26 09:18:11;;;;;;;7.60;3.55;;;;;;;;;;7394881;19;20081;-59
2021/12/26 09:20:39;;;;;;;7.43;3.45;;;;;;;;;;7394215;19;20029;-54
2021/12/26 09:23:06;;;;;;;5.35;3.03;;;;;;;;;;7397225;19;20034;-55
2021/12/26 09:25:35;;;;;;;7.50;3.15;;;;;;;;;;7397306;19;20035;-53
2021/12/26 09:28:02;;;;;;;7.63;4.03;;;;;;;;;;7397245;19;20046;-54
2021/12/26 09:30:30;;;;;;;8.52;3.70;;;;;;;;;;7396394;19;20081;-55
2021/12/26 09:32:57;;;;;;;7.80;3.58;;;;;;;;;;7393739;19;20011;-53
2021/12/26 09:35:25;;;;;;;7.53;3.83;;;;;;;;;;7395824;19;20014;-59
2021/12/26 09:37:52;;;;;;;7.28;3.90;;;;;;;;;;7392667;19;20018;-52
2021/12/26 09:40:20;;;;;;;7.22;3.00;;;;;;;;;;7395800;19;20027;-52
2021/12/26 09:42:47;;;;;;;8.15;3.33;;;;;;;;;;7396524;19;20006;-61
2021/12/26 09:45:18;;;;;;;10.20;3.75;;;;;;;;;;7396388;19;20015;-60
2021/12/26 09:47:50;;;;;;;8.43;3.30;;;;;;;;;;7394811;19;20069;-55
2021/12/26 09:50:20;;;;;;;5.05;3.10;;;;;;;;;;7396039;19;20010;-61
2021/12/26 09:52:49;;;;;;;7.28;3.78;;;;;;;;;;7395741;19;20014;-56
2021/12/26 09:55:16;;;;;;;8.57;3.00;;;;;;;;;;7400246;19;20353;-58
2021/12/26 09:57:44;;;;;;;8.10;3.53;;;;;;;;;;7393926;19;20054;-55
2021/12/26 10:00:29;;;;;;;7.20;3.97;;;;;;;;;;7395666;19;20503;-48
2021/12/26 10:03:10;;;;;;;6.88;3.67;;;;;;;;;;7394775;19;20451;-55
2021/12/26 10:06:14;;;;;;;7.90;3.40;;;;;;;;;;7395842;19;20507;-56
2021/12/26 10:09:01;;;;;;;6.28;3.78;;;;;;;;;;7395571;19;20077;-54
2021/12/26 10:11:31;;;;;;;6.22;3.30;;;;;;;;;;7395279;19;20130;-55
2021/12/26 10:14:01;;;;;;;8.10;3.75;;;;;;;;;;7395127;19;20010;-51
2021/12/26 10:16:34;;;;;;;8.23;3.63;;;;;;;;;;7394904;19;20201;-50
2021/12/26 10:19:03;;;;;;;7.32;3.30;;;;;;;;;;7395217;19;20010;-52
2021/12/26 10:21:38;;;;;;;6.55;3.13;;;;;;;;;;7394533;19;20038;-52
2021/12/26 10:24:10;;;;;;;8.05;2.78;;;;;;;;;;7395239;19;20044;-51
2021/12/26 10:26:43;;;;;;;6.32;3.55;;;;;;;;;;7394870;19;20479;-54
2021/12/26 10:29:16;;;;;;;6.28;3.20;;;;;;;;;;7393580;19;20034;-54
2021/12/26 10:31:47;;;;;;;5.32;3.45;;;;;;;;;;7394839;19;20011;-52
2021/12/26 10:34:21;;;;;;;9.38;3.28;;;;;;;;;;7394507;19;20010;-51
2021/12/26 10:36:52;;;;;;;6.00;3.25;;;;;;;;;;7393017;19;20022;-54
2021/12/26 10:39:23;;;;;;;8.45;3.08;;;;;;;;;;7392657;19;20021;-55
2021/12/26 10:42:04;;;;;;;4.70;2.65;;;;;;;;;;7392594;19;20014;-55
2021/12/26 10:44:40;;;;;;;7.20;3.65;;;;;;;;;;7394020;19;20010;-51
2021/12/26 10:47:14;;;;;;;6.85;3.22;;;;;;;;;;7393664;19;20010;-55
2021/12/26 10:49:50;;;;;;;7.90;3.08;;;;;;;;;;7393304;19;20010;-54
2021/12/26 10:52:32;;;;;;;7.40;3.60;;;;;;;;;;7392668;19;20475;-59
2021/12/26 10:55:01;;;;;;;8.35;3.78;;;;;;;;;;7398011;19;20014;-48
2021/12/26 10:57:33;;;;;;;7.97;3.42;;;;;;;;;;7392354;19;20022;-44
2021/12/26 11:00:25;;;;;;;6.43;3.78;;;;;;;;;;7393499;19;20010;-60
2021/12/26 11:03:04;;;;;;;6.22;3.53;;;;;;;;;;7392173;19;20015;-47
2021/12/26 11:05:35;;;;;;;6.07;3.10;;;;;;;;;;7393842;19;20027;-60
2021/12/26 11:08:11;;;;;;;8.15;3.75;;;;;;;;;;7393534;19;20019;-47
2021/12/26 11:10:42;;;;;;;5.05;2.70;;;;;;;;;;7393640;19;20026;-49
2021/12/26 11:13:19;;;;;;;7.70;3.50;;;;;;;;;;7393410;19;20027;-56
2021/12/26 11:15:48;;;;;;;6.75;3.53;;;;;;;;;;7393111;19;20010;-48
2021/12/26 11:18:18;;;;;;;7.38;3.72;;;;;;;;;;7391266;19;20368;-46
2021/12/26 11:20:48;;;;;;;6.90;4.07;;;;;;;;;;7393776;19;20050;-56
2021/12/26 11:23:23;;;;;;;5.30;2.80;;;;;;;;;;7392570;19;20558;-59
2021/12/26 11:26:12;;;;;;;6.95;3.53;;;;;;;;;;7392764;19;20025;-53
2021/12/26 11:28:42;;;;;;;8.40;3.70;;;;;;;;;;7392714;19;20014;-54
2021/12/26 11:31:14;;;;;;;4.88;2.80;;;;;;;;;;7392714;19;20015;-56
2021/12/26 11:33:42;;;;;;;9.35;3.53;;;;;;;;;;7392810;19;20018;-55
2021/12/26 11:36:11;;;;;;;5.82;2.90;;;;;;;;;;7391446;19;20018;-55
2021/12/26 11:38:41;;;;;;;8.88;3.25;;;;;;;;;;7388739;19;20014;-53
2021/12/26 11:41:57;;;;;;;8.60;3.28;;;;;;;;;;7389557;19;20022;-52
2021/12/26 11:45:12;;;;;;;4.13;2.45;;;;;;;;;;7392224;19;20109;-53
2021/12/26 11:48:26;;;;;;;4.90;2.83;;;;;;;;;;7392230;19;20022;-53
2021/12/26 11:52:11;;;;;;;6.40;3.55;;;;;;;;;;7389476;19;20014;-53
2021/12/26 11:55:49;;;;;;;6.65;3.22;;;;;;;;;;7395434;19;20019;-54
2021/12/26 11:58:50;;;;;;;5.85;2.85;;;;;;;;;;7388178;19;20034;-52
2021/12/26 12:01:20;;;;;;;9.18;3.33;;;;;;;;;;7389938;19;20499;-54
2021/12/26 12:03:49;;;;;;;4.82;2.60;;;;;;;;;;7390249;19;20360;-51
2021/12/26 12:06:25;;;;;;;6.28;2.90;;;;;;;;;;7391343;19;20011;-54
2021/12/26 12:08:55;;;;;;;8.00;3.40;;;;;;;;;;7391594;19;20011;-49
2021/12/26 12:11:23;;;;;;;5.20;2.55;;;;;;;;;;7389454;19;20013;-54
2021/12/26 12:13:53;;;;;;;6.57;3.63;;;;;;;;;;7391255;19;20045;-56
2021/12/26 12:16:24;;;;;;;6.53;3.00;;;;;;;;;;7390935;19;20046;-56
2021/12/26 12:18:56;;;;;;;7.35;3.55;;;;;;;;;;7389064;19;20028;-56
2021/12/26 12:21:41;;;;;;;6.55;3.20;;;;;;;;;;7391218;19;20479;-51
2021/12/26 12:24:26;;;;;;;5.60;3.25;;;;;;;;;;7391409;19;20013;-56
2021/12/26 12:26:56;;;;;;;7.43;3.33;;;;;;;;;;7390940;19;20011;-52
2021/12/26 12:29:29;;;;;;;8.00;3.45;;;;;;;;;;7390783;19;20039;-54
2021/12/26 12:32:09;;;;;;;4.95;2.65;;;;;;;;;;7391013;19;20054;-56
2021/12/26 12:35:05;;;;;;;9.18;3.25;;;;;;;;;;7390997;19;20007;-57
2021/12/26 12:37:40;;;;;;;7.20;3.50;;;;;;;;;;7389754;19;20011;-56
2021/12/26 12:40:12;;;;;;;8.85;3.42;;;;;;;;;;7391068;19;20007;-54
2021/12/26 12:42:43;;;;;;;9.20;3.65;;;;;;;;;;7390849;19;20019;-60
2021/12/26 12:45:10;;;;;;;6.60;2.90;;;;;;;;;;7389516;19;20007;-50
2021/12/26 12:47:41;;;;;;;4.90;2.35;;;;;;;;;;7390666;19;20006;-51
2021/12/26 12:50:08;;;;;;;8.23;3.40;;;;;;;;;;7391820;19;20011;-49
2021/12/26 12:52:50;;;;;;;4.22;2.60;;;;;;;;;;7390810;19;20014;-51
2021/12/26 12:55:40;;;;;;;4.88;2.70;;;;;;;;;;7395303;19;20015;-53
2021/12/26 12:58:40;;;;;;;5.78;2.97;;;;;;;;;;7389003;19;20007;-52
2021/12/26 13:01:07;;;;;;;6.82;3.15;;;;;;;;;;7388211;19;20018;-50
2021/12/26 13:03:36;;;;;;;5.50;3.00;;;;;;;;;;7390468;19;20007;-53
2021/12/26 13:06:09;;;;;;;6.70;3.08;;;;;;;;;;7390599;19;20394;-51
2021/12/26 13:08:37;;;;;;;5.00;2.75;;;;;;;;;;7390038;19;20033;-52
2021/12/26 13:11:06;;;;;;;6.70;2.78;;;;;;;;;;7390410;19;20028;-53
2021/12/26 13:13:40;;;;;;;6.22;2.75;;;;;;;;;;7393512;19;20011;-50
2021/12/26 13:16:07;;;;;;;5.70;3.55;;;;;;;;;;7397391;19;20025;-52
2021/12/26 13:18:38;;;;;;;6.75;3.53;;;;;;;;;;7395281;19;20078;-53
2021/12/26 13:21:09;;;;;;;7.43;3.28;;;;;;;;;;7393684;19;20007;-58
2021/12/26 13:23:39;;;;;;;10.70;4.03;;;;;;;;;;7396870;19;20038;-55
2021/12/26 13:26:09;;;;;;;10.35;3.72;;;;;;;;;;7397512;19;20086;-56
2021/12/26 13:28:38;;;;;;;13.18;4.95;;;;;;;;;;7397047;19;20085;-56
2021/12/26 13:31:14;;;;;;;12.30;5.75;;;;;;;;;;7396784;19;20032;-57
2021/12/26 13:33:44;;;;;;;7.25;3.38;;;;;;;;;;7396959;19;20074;-58
2021/12/26 13:36:21;;;;;;;5.57;3.47;;;;;;;;;;7397246;19;20007;-59
2021/12/26 13:38:51;;;;;;;3.97;2.40;;;;;;;;;;7394004;19;20017;-60
2021/12/26 13:41:22;;;;;;;6.53;2.95;;;;;;;;;;7401049;19;20006;-53
2021/12/26 13:43:50;;;;;;;5.88;2.63;;;;;;;;;;7395878;19;20007;-60
2021/12/26 13:46:21;;;;;;;6.07;3.92;;;;;;;;;;7394046;19;20014;-59
2021/12/26 13:51:26;;;;;;;6.72;4.28;;;;;;;;;;7395823;19;20019;-55
2021/12/26 13:54:06;;;;;;;6.32;4.15;;;;;;;;;;7397485;19;20011;-57
2021/12/26 13:56:50;;;;;;;8.27;3.90;;;;;;;;;;7395682;19;20011;-55
2021/12/26 13:59:41;;;;;;;5.70;3.10;;;;;;;;;;7393482;19;20022;-57
2021/12/26 14:02:23;;;;;;;8.07;3.83;;;;;;;;;;7393938;19;20390;-56
2021/12/26 14:04:57;;;;;;;3.75;2.25;;;;;;;;;;7395391;19;20011;-55
2021/12/26 14:07:31;;;;;;;5.18;2.55;;;;;;;;;;7396507;19;20022;-58
2021/12/26 14:10:03;;;;;;;5.13;2.55;;;;;;;;;;7396275;19;20016;-58
2021/12/26 14:12:49;;;;;;;6.88;2.80;;;;;;;;;;7394938;19;20078;-50
2021/12/26 14:15:30;;;;;;;6.60;2.97;;;;;;;;;;7395462;19;20007;-56
2021/12/26 14:18:05;;;;;;;7.53;3.03;;;;;;;;;;7393972;19;20848;-52
2021/12/26 14:20:49;;;;;;;7.85;3.13;;;;;;;;;;7391999;19;20014;-58
2021/12/26 14:23:42;;;;;;;6.40;2.60;;;;;;;;;;7394522;19;20017;-57
2021/12/26 14:26:16;;;;;;;5.22;3.47;;;;;;;;;;7394508;19;20402;-52
2021/12/26 14:28:54;;;;;;;6.72;2.58;;;;;;;;;;7394889;19;20514;-52
2021/12/26 14:31:29;;;;;;;5.72;3.35;;;;;;;;;;7394731;19;20034;-62
2021/12/26 14:33:58;;;;;;;6.57;2.80;;;;;;;;;;7394371;19;20010;-61
2021/12/26 14:36:27;;;;;;;6.88;3.08;;;;;;;;;;7394663;19;20037;-56
2021/12/26 14:39:04;;;;;;;4.18;2.67;;;;;;;;;;7390897;19;20027;-61
2021/12/26 14:41:39;;;;;;;7.28;2.58;;;;;;;;;;7394462;19;20019;-60
2021/12/26 14:44:19;;;;;;;5.55;2.45;;;;;;;;;;7394366;19;20050;-52
2021/12/26 14:46:49;;;;;;;3.88;1.85;;;;;;;;;;7394347;19;20038;-59
2021/12/26 14:49:19;;;;;;;6.57;2.55;;;;;;;;;;7393615;19;20002;-51
2021/12/26 14:52:07;;;;;;;5.97;3.33;;;;;;;;;;7394077;19;20077;-52
2021/12/26 14:54:43;;;;;;;5.45;3.10;;;;;;;;;;7396943;19;20014;-54
2021/12/26 14:57:23;;;;;;;7.95;3.00;;;;;;;;;;7391910;19;20331;-52
2021/12/26 14:59:53;;;;;;;4.35;2.60;;;;;;;;;;7393408;19;20010;-52
2021/12/26 15:02:23;;;;;;;11.98;3.92;;;;;;;;;;7393714;19;20006;-61
2021/12/26 15:05:01;;;;;;;7.15;3.60;;;;;;;;;;7393342;19;20035;-52
2021/12/26 15:07:29;;;;;;;6.20;2.75;;;;;;;;;;7393017;19;20117;-56
2021/12/26 15:10:00;;;;;;;5.78;2.72;;;;;;;;;;7393497;19;20035;-60
2021/12/26 15:12:33;;;;;;;5.32;3.25;;;;;;;;;;7393535;19;20034;-50
2021/12/26 15:15:29;;;;;;;5.40;3.00;;;;;;;;;;7391536;19;20474;-59
2021/12/26 15:18:22;;;;;;;7.65;3.35;;;;;;;;;;7391925;19;20029;-54
2021/12/26 15:20:53;;;;;;;5.87;2.33;;;;;;;;;;7395328;19;20507;-51
2021/12/26 15:23:23;;;;;;;4.65;2.65;;;;;;;;;;7393486;19;20251;-57
2021/12/26 15:26:07;;;;;;;3.97;2.20;;;;;;;;;;7393318;19;20007;-55
2021/12/26 15:28:49;;;;;;;5.82;3.22;;;;;;;;;;7392742;19;20034;-56
2021/12/26 15:31:35;;;;;;;6.45;3.22;;;;;;;;;;7395794;19;20474;-56
2021/12/26 15:34:11;;;;;;;11.02;2.97;;;;;;;;;;7392933;19;20014;-54